Time;durP1;ratioP1;P1;durP2;ratioP2;P2;SDS_P1;SDS_P2;PMS_P1;PMS_P2;Temp;Humidity;BMP_temperature;BMP_pressure;BME280_temperature;BME280_humidity;BME280_pressure;Samples;Min_cycle;Max_cycle;Signal;HPM_P1;HPM_P2
2023/12/14 00:00:55;;;;;;;10.07;9.07;;;;;;;6.50;100.00;100851.78;5131101;27;20023;-38
2023/12/14 00:03:20;;;;;;;9.63;8.73;;;;;;;6.47;100.00;100846.81;5130713;27;20079;-37
2023/12/14 00:05:45;;;;;;;10.17;9.07;;;;;;;6.52;100.00;100866.66;5130459;27;20047;-37
2023/12/14 00:08:11;;;;;;;10.40;9.40;;;;;;;6.51;100.00;100856.13;5122374;27;20074;-37
2023/12/14 00:10:36;;;;;;;11.67;10.37;;;;;;;6.58;100.00;100873.06;5116991;28;20020;-37
2023/12/14 00:13:03;;;;;;;11.97;10.77;;;;;;;6.58;100.00;100881.94;5116830;28;20031;-37
2023/12/14 00:15:28;;;;;;;12.20;11.00;;;;;;;6.50;100.00;100884.00;5117591;28;20059;-37
2023/12/14 00:17:53;;;;;;;14.13;11.80;;;;;;;6.49;100.00;100898.44;5116755;28;20063;-37
2023/12/14 00:20:19;;;;;;;13.00;11.70;;;;;;;6.29;100.00;100883.09;5117056;28;20110;-38
2023/12/14 00:22:44;;;;;;;14.13;12.80;;;;;;;6.37;100.00;100892.84;5117538;28;20028;-37
2023/12/14 00:25:09;;;;;;;14.13;12.73;;;;;;;6.38;100.00;100905.25;5116361;27;20551;-37
2023/12/14 00:27:35;;;;;;;14.00;12.50;;;;;;;6.31;100.00;100913.28;5116574;28;20054;-37
2023/12/14 00:30:00;;;;;;;14.87;13.37;;;;;;;6.32;100.00;100924.88;5116832;28;20035;-37
2023/12/14 00:32:26;;;;;;;14.90;13.20;;;;;;;6.30;100.00;100930.44;5116465;28;20102;-37
2023/12/14 00:34:51;;;;;;;15.33;13.67;;;;;;;6.25;100.00;100940.97;5116434;28;20157;-37
2023/12/14 00:37:16;;;;;;;16.07;13.70;;;;;;;6.26;100.00;100942.59;5116633;28;20051;-37
2023/12/14 00:39:42;;;;;;;16.03;13.70;;;;;;;6.18;100.00;100950.81;5116651;28;20460;-38
2023/12/14 00:42:07;;;;;;;15.80;14.20;;;;;;;6.20;100.00;100959.53;5116627;28;20464;-37
2023/12/14 00:44:33;;;;;;;16.13;13.60;;;;;;;6.13;100.00;100964.84;5116019;28;20463;-37
2023/12/14 00:47:00;;;;;;;15.50;13.88;;;;;;;6.06;100.00;100952.44;5116489;28;20035;-37
2023/12/14 00:49:27;;;;;;;15.10;13.38;;;;;;;6.07;100.00;100964.81;5116088;28;20028;-37
2023/12/14 00:51:53;;;;;;;14.95;12.50;;;;;;;5.94;100.00;100960.19;5116633;28;20379;-37
2023/12/14 00:54:18;;;;;;;13.83;12.37;;;;;;;6.04;100.00;100982.13;5116805;27;20031;-37
2023/12/14 00:56:43;;;;;;;13.50;12.03;;;;;;;5.99;100.00;100981.09;5116248;28;20054;-37
2023/12/14 00:59:09;;;;;;;11.90;10.70;;;;;;;5.96;100.00;100990.38;5115740;28;20110;-37
2023/12/14 01:01:34;;;;;;;12.03;10.77;;;;;;;5.87;100.00;100980.78;5115900;28;20050;-37
2023/12/14 01:04:00;;;;;;;12.23;11.03;;;;;;;5.87;100.00;100997.72;5115952;28;20697;-37
2023/12/14 01:06:25;;;;;;;11.83;10.57;;;;;;;5.84;100.00;100992.72;5115835;28;20432;-37
2023/12/14 01:08:50;;;;;;;12.57;11.27;;;;;;;5.75;100.00;100991.22;5115564;28;20031;-37
2023/12/14 01:11:16;;;;;;;11.30;10.10;;;;;;;5.72;100.00;100999.66;5115977;28;20662;-37
2023/12/14 01:13:41;;;;;;;11.63;10.43;;;;;;;5.74;100.00;100996.78;5115722;28;20020;-37
2023/12/14 01:16:07;;;;;;;11.30;10.10;;;;;;;5.77;100.00;100999.91;5116438;28;20118;-37
2023/12/14 01:18:32;;;;;;;10.80;9.70;;;;;;;5.72;100.00;101013.09;5115829;28;20023;-37
2023/12/14 01:20:58;;;;;;;11.73;9.63;;;;;;;5.71;100.00;101019.50;5115234;28;20030;-37
2023/12/14 01:23:23;;;;;;;11.00;9.77;;;;;;;5.65;100.00;101007.66;5115504;28;20519;-37
2023/12/14 01:25:48;;;;;;;10.50;9.20;;;;;;;5.72;100.00;101031.03;5116041;28;20032;-37
2023/12/14 01:28:14;;;;;;;10.17;9.17;;;;;;;5.61;100.00;101025.19;5115449;28;20375;-37
2023/12/14 01:30:39;;;;;;;10.13;9.13;;;;;;;5.49;100.00;101018.66;5115655;28;20395;-37
2023/12/14 01:33:04;;;;;;;10.43;9.43;;;;;;;5.72;100.00;101047.97;5115784;28;20305;-37
2023/12/14 01:35:30;;;;;;;10.82;9.73;;;;;;;5.72;100.00;101055.19;5114840;28;20270;-37
2023/12/14 01:37:55;;;;;;;10.20;9.10;;;;;;;5.71;100.00;101049.00;5115148;28;20027;-37
2023/12/14 01:40:21;;;;;;;10.60;9.50;;;;;;;5.57;100.00;101033.81;5115398;28;20024;-37
2023/12/14 01:42:46;;;;;;;10.77;9.67;;;;;;;5.58;100.00;101038.97;5114869;27;20102;-37
2023/12/14 01:45:15;;;;;;;11.25;9.27;;;;;;;5.59;100.00;101047.84;5114734;28;20111;-37
2023/12/14 01:47:40;;;;;;;10.75;9.65;;;;;;;5.60;100.00;101061.06;5115341;28;20040;-37
2023/12/14 01:50:06;;;;;;;10.97;9.67;;;;;;;5.64;100.00;101070.38;5114681;28;20019;-37
2023/12/14 01:52:31;;;;;;;11.80;10.57;;;;;;;5.58;100.00;101068.47;5115489;28;20692;-37
2023/12/14 01:54:58;;;;;;;11.40;10.13;;;;;;;5.56;100.00;101078.59;5115111;28;20384;-37
2023/12/14 01:57:24;;;;;;;11.40;10.30;;;;;;;5.56;100.00;101086.63;5115842;28;20048;-37
2023/12/14 01:59:49;;;;;;;11.27;10.18;;;;;;;5.59;100.00;101091.59;5114952;28;20376;-37
2023/12/14 02:02:15;;;;;;;11.67;10.50;;;;;;;5.59;100.00;101090.78;5114791;28;20038;-37
2023/12/14 02:04:40;;;;;;;12.80;10.93;;;;;;;5.53;100.00;101088.88;5115186;28;20046;-37
2023/12/14 02:07:06;;;;;;;13.17;10.50;;;;;;;5.62;100.00;101096.59;5114348;28;20289;-37
2023/12/14 02:09:31;;;;;;;12.07;10.40;;;;;;;5.67;100.00;101104.06;5114555;28;20266;-37
2023/12/14 02:11:56;;;;;;;10.80;9.70;;;;;;;5.59;100.00;101096.13;5114139;28;20035;-37
2023/12/14 02:14:23;;;;;;;10.33;9.23;;;;;;;5.58;100.00;101110.59;5115048;28;20051;-36
2023/12/14 02:16:48;;;;;;;11.10;9.98;;;;;;;5.58;100.00;101126.69;5114495;28;20023;-37
2023/12/14 02:19:14;;;;;;;10.43;9.43;;;;;;;5.51;100.00;101137.31;5114465;28;20080;-37
2023/12/14 02:21:39;;;;;;;12.00;10.27;;;;;;;5.59;100.00;101136.38;5115255;27;20031;-37
2023/12/14 02:24:04;;;;;;;11.10;10.00;;;;;;;5.58;100.00;101140.09;5114422;28;20023;-37
2023/12/14 02:26:30;;;;;;;11.60;10.20;;;;;;;5.58;100.00;101145.47;5114310;28;20467;-37
2023/12/14 02:28:55;;;;;;;10.67;9.57;;;;;;;5.66;100.00;101148.00;5114279;28;20024;-37
2023/12/14 02:31:20;;;;;;;12.60;10.70;;;;;;;5.63;100.00;101156.44;5113820;28;20055;-37
2023/12/14 02:33:46;;;;;;;11.17;9.93;;;;;;;5.63;100.00;101153.75;5114177;28;20027;-37
2023/12/14 02:36:11;;;;;;;11.77;10.57;;;;;;;5.65;100.00;101159.75;5114698;28;20277;-37
2023/12/14 02:38:36;;;;;;;11.33;10.07;;;;;;;5.66;100.00;101166.78;5114228;28;20051;-37
2023/12/14 02:41:02;;;;;;;13.60;10.70;;;;;;;5.55;100.00;101159.25;5114879;28;20057;-37
2023/12/14 02:43:27;;;;;;;11.32;10.15;;;;;;;5.50;100.00;101167.84;5114100;28;20076;-37
2023/12/14 02:45:55;;;;;;;11.80;10.30;;;;;;;5.53;100.00;101177.38;5114359;28;20102;-37
2023/12/14 02:48:20;;;;;;;10.52;9.43;;;;;;;5.53;100.00;101177.38;5114488;28;20084;-37
2023/12/14 02:50:45;;;;;;;11.50;10.30;;;;;;;5.45;100.00;101170.28;5114029;28;20055;-37
2023/12/14 02:53:11;;;;;;;11.43;9.73;;;;;;;5.53;100.00;101186.25;5114595;28;20402;-37
2023/12/14 02:55:36;;;;;;;11.67;10.47;;;;;;;5.51;100.00;101188.28;5113669;28;20123;-37
2023/12/14 02:58:01;;;;;;;12.43;10.83;;;;;;;5.43;100.00;101177.69;5114753;28;20067;-37
2023/12/14 03:00:27;;;;;;;10.67;9.57;;;;;;;5.43;100.00;101197.28;5114824;28;20363;-37
2023/12/14 03:02:52;;;;;;;11.87;9.47;;;;;;;5.27;100.00;101178.75;5113938;28;20023;-37
2023/12/14 03:05:17;;;;;;;11.23;10.10;;;;;;;5.36;100.00;101203.59;5114209;28;20374;-37
2023/12/14 03:07:43;;;;;;;11.20;9.83;;;;;;;5.39;100.00;101217.47;5113821;28;20030;-37
2023/12/14 03:10:08;;;;;;;10.43;9.37;;;;;;;5.34;100.00;101202.97;5114224;28;20054;-37
2023/12/14 03:12:34;;;;;;;11.13;9.80;;;;;;;5.41;100.00;101215.41;5114127;28;20042;-37
2023/12/14 03:14:59;;;;;;;12.50;10.83;;;;;;;5.40;100.00;101219.13;5113949;28;20100;-37
2023/12/14 03:17:24;;;;;;;11.80;10.17;;;;;;;5.43;100.00;101218.75;5114468;28;20031;-37
2023/12/14 03:19:50;;;;;;;11.07;9.97;;;;;;;5.38;100.00;101218.50;5114217;28;20103;-37
2023/12/14 03:22:15;;;;;;;10.43;9.43;;;;;;;5.42;100.00;101225.16;5114039;28;20030;-37
2023/12/14 03:24:42;;;;;;;10.20;9.20;;;;;;;5.33;100.00;101215.53;5113615;28;20023;-37
2023/12/14 03:27:07;;;;;;;11.48;9.35;;;;;;;5.42;100.00;101227.81;5113254;28;20466;-40
2023/12/14 03:29:33;;;;;;;10.80;9.80;;;;;;;5.37;100.00;101229.41;5113716;28;20024;-37
2023/12/14 03:31:58;;;;;;;10.47;9.43;;;;;;;5.36;100.00;101230.41;5113749;28;20472;-37
2023/12/14 03:34:24;;;;;;;10.37;9.37;;;;;;;5.37;100.00;101222.19;5113678;28;20027;-37
2023/12/14 03:36:49;;;;;;;10.75;9.75;;;;;;;5.33;100.00;101231.63;5113266;28;20023;-37
2023/12/14 03:39:18;;;;;;;10.98;9.95;;;;;;;5.35;100.00;101228.75;5113587;28;20081;-36
2023/12/14 03:41:44;;;;;;;10.70;9.38;;;;;;;5.29;100.00;101226.81;5113316;28;20031;-37
2023/12/14 03:44:10;;;;;;;9.77;8.80;;;;;;;5.32;100.00;101235.34;5117352;28;20375;-37
2023/12/14 03:46:35;;;;;;;10.93;9.40;;;;;;;5.35;100.00;101237.63;5117382;28;20032;-36
2023/12/14 03:49:01;;;;;;;11.02;9.82;;;;;;;5.12;100.00;101210.09;5117015;27;20268;-37
2023/12/14 03:51:27;;;;;;;;;;;;;;;5.37;100.00;101246.34;5118056;28;20038;-37
2023/12/14 03:53:52;;;;;;;10.13;9.07;;;;;;;5.15;100.00;101225.81;5116967;28;19967;-37
2023/12/14 03:56:17;;;;;;;11.27;10.07;;;;;;;5.29;100.00;101250.97;5117126;28;20079;-37
2023/12/14 03:58:43;;;;;;;9.80;8.90;;;;;;;5.29;100.00;101257.16;5117117;28;20019;-37
2023/12/14 04:01:16;;;;;;;10.60;9.60;;;;;;;5.23;100.00;101252.53;5117173;28;20257;-37
2023/12/14 04:03:41;;;;;;;9.82;8.93;;;;;;;5.28;100.00;101266.22;5117042;28;20456;-36
2023/12/14 04:06:06;;;;;;;11.27;10.17;;;;;;;5.27;100.00;101259.19;5117568;28;20038;-37
2023/12/14 04:08:32;;;;;;;10.17;9.20;;;;;;;5.31;100.00;101265.81;5116958;28;20110;-36
2023/12/14 04:10:57;;;;;;;11.10;10.10;;;;;;;5.16;100.00;101270.38;5117275;28;20523;-37
2023/12/14 04:13:22;;;;;;;11.50;9.67;;;;;;;5.13;100.00;101273.44;5116888;28;20467;-37
2023/12/14 04:15:48;;;;;;;10.30;9.23;;;;;;;5.05;100.00;101260.94;5117349;28;20493;-37
2023/12/14 04:18:13;;;;;;;10.63;9.63;;;;;;;5.09;100.00;101277.50;5116818;28;20019;-37
2023/12/14 04:20:38;;;;;;;10.13;9.23;;;;;;;5.07;100.00;101274.16;5116771;28;20047;-37
2023/12/14 04:23:04;;;;;;;10.80;9.80;;;;;;;5.06;100.00;101280.53;5117025;28;20027;-36
2023/12/14 04:25:29;;;;;;;10.73;9.73;;;;;;;5.03;100.00;101288.97;5116412;28;20080;-37
2023/12/14 04:27:54;;;;;;;11.30;10.20;;;;;;;5.07;100.00;101295.59;5116250;28;20036;-37
2023/12/14 04:30:20;;;;;;;10.73;9.73;;;;;;;5.10;100.00;101297.91;5116852;28;20038;-37
2023/12/14 04:32:47;;;;;;;10.97;9.97;;;;;;;5.11;100.00;101303.09;5116523;28;20062;-36
2023/12/14 04:35:12;;;;;;;10.50;9.52;;;;;;;5.13;100.00;101317.16;5116435;28;20023;-37
2023/12/14 04:37:38;;;;;;;11.33;10.27;;;;;;;5.13;100.00;101316.34;5116963;28;20372;-37
2023/12/14 04:40:03;;;;;;;11.30;10.20;;;;;;;5.21;100.00;101334.16;5116054;28;20757;-36
2023/12/14 04:42:29;;;;;;;11.48;10.48;;;;;;;5.24;100.00;101331.13;5116934;28;20456;-37
2023/12/14 04:44:54;;;;;;;10.53;9.57;;;;;;;5.21;100.00;101324.28;5116303;27;20080;-37
2023/12/14 04:47:19;;;;;;;12.07;10.77;;;;;;;5.24;100.00;101340.00;5116217;28;20027;-37
2023/12/14 04:49:45;;;;;;;11.87;10.77;;;;;;;5.23;100.00;101342.88;5115941;28;20084;-37
2023/12/14 04:52:10;;;;;;;11.00;10.00;;;;;;;5.17;100.00;101344.41;5115932;28;20055;-37
2023/12/14 04:54:40;;;;;;;10.30;9.40;;;;;;;5.13;100.00;101341.28;5116253;28;20066;-37
2023/12/14 04:57:05;;;;;;;10.75;9.75;;;;;;;5.22;100.00;101352.78;5116679;28;20040;-46
2023/12/14 04:59:31;;;;;;;11.47;10.37;;;;;;;5.28;100.00;101356.56;5116792;28;20420;-37
2023/12/14 05:01:56;;;;;;;10.97;9.87;;;;;;;5.23;100.00;101354.44;5116071;28;20260;-37
2023/12/14 05:04:21;;;;;;;10.13;9.13;;;;;;;5.25;100.00;101362.28;5116151;28;20095;-37
2023/12/14 05:06:47;;;;;;;11.27;9.87;;;;;;;5.22;100.00;101370.69;5116187;28;20036;-37
2023/12/14 05:09:12;;;;;;;10.80;9.80;;;;;;;5.21;100.00;101372.53;5115478;28;20460;-37
2023/12/14 05:11:39;;;;;;;10.70;9.70;;;;;;;5.15;100.00;101370.59;5116050;28;20050;-37
2023/12/14 05:14:04;;;;;;;11.05;9.95;;;;;;;5.24;100.00;101382.06;5115660;28;20027;-37
2023/12/14 05:16:30;;;;;;;11.27;10.17;;;;;;;5.26;100.00;101391.59;5115608;28;20032;-37
2023/12/14 05:18:56;;;;;;;11.40;10.40;;;;;;;5.24;100.00;101399.00;5116429;28;20028;-37
2023/12/14 05:21:22;;;;;;;11.18;10.10;;;;;;;5.21;100.00;101401.19;5115809;28;20391;-37
2023/12/14 05:23:48;;;;;;;11.10;10.10;;;;;;;5.21;100.00;101410.06;5115504;28;20024;-36
2023/12/14 05:26:13;;;;;;;10.25;9.35;;;;;;;5.12;100.00;101401.28;5115768;28;20096;-37
2023/12/14 05:28:39;;;;;;;11.70;10.60;;;;;;;5.16;100.00;101415.16;5115414;28;20079;-37
2023/12/14 05:31:04;;;;;;;11.60;10.50;;;;;;;5.16;100.00;101425.88;5115694;28;20044;-37
2023/12/14 05:33:31;;;;;;;12.90;11.60;;;;;;;5.07;100.00;101425.09;5115864;28;20057;-37
2023/12/14 05:35:56;;;;;;;11.07;10.05;;;;;;;5.12;100.00;101433.47;5115467;28;20460;-37
2023/12/14 05:38:22;;;;;;;11.20;10.13;;;;;;;5.14;100.00;101442.16;5115983;28;20046;-37
2023/12/14 05:40:47;;;;;;;11.73;10.73;;;;;;;5.13;100.00;101439.66;5115271;28;20028;-37
2023/12/14 05:43:12;;;;;;;10.20;9.30;;;;;;;5.18;100.00;101448.00;5115632;28;20031;-36
2023/12/14 05:45:38;;;;;;;11.80;10.60;;;;;;;5.16;100.00;101455.38;5115189;28;20104;-37
2023/12/14 05:48:05;;;;;;;11.17;10.17;;;;;;;5.15;100.00;101457.22;5114720;28;20050;-37
2023/12/14 05:50:30;;;;;;;10.63;9.63;;;;;;;5.18;100.00;101469.44;5115575;28;20092;-37
2023/12/14 05:52:56;;;;;;;11.52;10.35;;;;;;;5.23;100.00;101479.63;5114898;28;20106;-37
2023/12/14 05:55:21;;;;;;;10.93;9.90;;;;;;;5.20;100.00;101483.50;5115193;28;20028;-36
2023/12/14 05:57:50;;;;;;;11.17;10.07;;;;;;;5.20;100.00;101486.16;5115658;28;20047;-37
2023/12/14 06:00:16;;;;;;;10.52;9.52;;;;;;;5.23;100.00;101499.22;5115015;27;20261;-36
2023/12/14 06:02:41;;;;;;;11.05;9.95;;;;;;;5.20;100.00;101493.38;5114726;28;20468;-37
2023/12/14 06:05:08;;;;;;;10.15;9.25;;;;;;;5.27;100.00;101500.53;5114203;28;20036;-36
2023/12/14 06:07:33;;;;;;;10.60;9.70;;;;;;;5.21;100.00;101503.91;5114596;28;20027;-37
2023/12/14 06:09:59;;;;;;;10.80;9.80;;;;;;;5.21;100.00;101503.91;5115478;28;20022;-37
2023/12/14 06:12:25;;;;;;;10.82;9.93;;;;;;;5.19;100.00;101503.28;5114882;28;20072;-37
2023/12/14 06:14:50;;;;;;;10.18;9.25;;;;;;;5.24;100.00;101505.41;5114257;28;20110;-37
2023/12/14 06:17:16;;;;;;;9.73;8.83;;;;;;;5.15;100.00;101493.91;5114685;28;20031;-37
2023/12/14 06:19:42;;;;;;;9.70;8.80;;;;;;;5.19;100.00;101497.91;5114409;28;20345;-37
2023/12/14 06:22:07;;;;;;;9.68;8.77;;;;;;;5.26;100.00;101514.94;5114372;28;20470;-37
2023/12/14 06:24:32;;;;;;;10.67;9.67;;;;;;;5.23;100.00;101523.34;5114379;28;20023;-37
2023/12/14 06:26:58;;;;;;;10.60;9.60;;;;;;;5.17;100.00;101516.00;5115177;28;20035;-37
2023/12/14 06:29:23;;;;;;;12.40;10.73;;;;;;;5.09;100.00;101516.91;5115138;28;20273;-37
2023/12/14 06:31:49;;;;;;;11.20;10.13;;;;;;;5.19;100.00;101537.31;5114876;28;20068;-37
2023/12/14 06:34:14;;;;;;;10.88;9.88;;;;;;;5.14;100.00;101543.19;5113938;28;20108;-37
2023/12/14 06:36:45;;;;;;;10.43;9.33;;;;;;;5.18;100.00;101541.84;5114485;28;20086;-37
2023/12/14 06:39:11;;;;;;;12.63;11.23;;;;;;;5.19;100.00;101546.19;5114687;28;20055;-37
2023/12/14 06:41:37;;;;;;;11.32;10.20;;;;;;;5.19;100.00;101548.03;5114166;28;20066;-37
2023/12/14 06:44:02;;;;;;;11.82;10.73;;;;;;;5.14;100.00;101546.72;5114148;28;20031;-37
2023/12/14 06:46:28;;;;;;;12.43;11.23;;;;;;;5.09;100.00;101556.31;5114956;28;20039;-37
2023/12/14 06:48:55;;;;;;;12.10;11.00;;;;;;;5.05;100.00;101545.09;5114109;28;20057;-37
2023/12/14 06:51:20;;;;;;;15.02;11.27;;;;;;;5.09;100.00;101557.13;5114626;28;20141;-37
2023/12/14 06:53:47;;;;;;;12.63;11.32;;;;;;;5.08;100.00;101563.50;5114017;28;20126;-37
2023/12/14 06:56:12;;;;;;;;;;;;;;;5.19;100.00;101572.16;5114831;28;20055;-37
2023/12/14 06:58:42;;;;;;;13.82;11.77;;;;;;;4.98;100.00;101578.13;5113985;28;20291;-37
2023/12/14 07:01:13;;;;;;;16.13;11.57;;;;;;;5.01;100.00;101573.25;5113920;28;20024;-37
2023/12/14 07:03:44;;;;;;;12.10;10.85;;;;;;;5.00;100.00;101585.00;5113895;28;20114;-37
2023/12/14 07:06:13;;;;;;;12.80;11.15;;;;;;;4.99;100.00;101595.91;5114470;28;20037;-37
2023/12/14 07:08:39;;;;;;;12.77;10.95;;;;;;;4.98;100.00;101594.22;5113644;28;20035;-37
2023/12/14 07:11:04;;;;;;;11.57;10.23;;;;;;;4.98;100.00;101591.53;5114385;28;20375;-37
2023/12/14 07:13:30;;;;;;;12.10;10.00;;;;;;;4.91;100.00;101592.25;5113515;28;20114;-37
2023/12/14 07:15:55;;;;;;;13.30;10.37;;;;;;;4.93;100.00;101601.94;5113976;28;20282;-37
2023/12/14 07:18:20;;;;;;;12.10;10.90;;;;;;;4.90;100.00;101603.97;5116192;28;20034;-37
2023/12/14 07:20:46;;;;;;;11.73;9.90;;;;;;;4.94;100.00;101614.38;5117591;28;20020;-37
2023/12/14 07:23:11;;;;;;;13.70;9.93;;;;;;;4.87;100.00;101617.72;5117627;28;20060;-37
2023/12/14 07:25:36;;;;;;;11.63;10.43;;;;;;;4.87;100.00;101615.03;5118430;27;20028;-37
2023/12/14 07:28:02;;;;;;;12.57;9.40;;;;;;;4.93;100.00;101634.09;5117814;28;20067;-37
2023/12/14 07:30:27;;;;;;;10.07;8.93;;;;;;;4.96;100.00;101645.31;5117715;28;20031;-36
2023/12/14 07:32:53;;;;;;;11.00;8.97;;;;;;;4.95;100.00;101645.50;5117456;28;20051;-37
2023/12/14 07:35:18;;;;;;;8.70;7.77;;;;;;;4.96;100.00;101656.06;5117682;28;20035;-38
2023/12/14 07:37:43;;;;;;;9.23;8.33;;;;;;;4.89;100.00;101642.53;5118415;28;20413;-37
2023/12/14 07:40:09;;;;;;;9.60;8.27;;;;;;;4.94;100.00;101654.56;5117852;27;20032;-36
2023/12/14 07:42:34;;;;;;;8.82;7.93;;;;;;;4.93;100.00;101655.56;5117779;28;20023;-37
2023/12/14 07:45:00;;;;;;;8.60;7.60;;;;;;;4.93;100.00;101663.59;5117711;28;20063;-36
2023/12/14 07:47:25;;;;;;;8.37;7.30;;;;;;;4.90;100.00;101659.44;5118240;28;20027;-37
2023/12/14 07:49:50;;;;;;;9.53;7.73;;;;;;;4.96;100.00;101679.34;5117014;27;20024;-36
2023/12/14 07:52:16;;;;;;;11.43;7.20;;;;;;;4.92;100.00;101678.84;5117090;28;20027;-37
2023/12/14 07:54:41;;;;;;;8.50;7.70;;;;;;;4.96;100.00;101682.84;5116901;28;20024;-37
2023/12/14 07:57:07;;;;;;;9.27;7.30;;;;;;;4.91;100.00;101688.72;5117429;28;20055;-37
2023/12/14 07:59:32;;;;;;;7.75;6.65;;;;;;;4.82;100.00;101673.69;5117632;28;20046;-37
2023/12/14 08:01:58;;;;;;;7.80;7.00;;;;;;;4.91;100.00;101691.41;5117756;28;20076;-36
2023/12/14 08:04:24;;;;;;;6.70;6.00;;;;;;;4.88;100.00;101704.31;5116770;28;20112;-37
2023/12/14 08:06:49;;;;;;;7.35;6.07;;;;;;;4.87;100.00;101690.06;5117603;28;20067;-37
2023/12/14 08:09:15;;;;;;;7.03;6.33;;;;;;;4.83;100.00;101702.19;5116680;28;20104;-37
2023/12/14 08:11:40;;;;;;;7.83;6.90;;;;;;;4.80;100.00;101710.56;5117510;28;20265;-37
2023/12/14 08:14:06;;;;;;;8.75;6.45;;;;;;;4.81;100.00;101706.84;5117441;27;20064;-37
2023/12/14 08:16:31;;;;;;;7.10;6.40;;;;;;;4.78;100.00;101711.72;5116571;28;20388;-37
2023/12/14 08:18:56;;;;;;;8.43;6.97;;;;;;;4.79;100.00;101711.56;5116872;28;20024;-37
2023/12/14 08:21:22;;;;;;;7.47;6.67;;;;;;;4.83;100.00;101717.41;5116797;28;20099;-37
2023/12/14 08:23:47;;;;;;;8.80;6.87;;;;;;;4.85;100.00;101726.94;5116386;28;20031;-37
2023/12/14 08:26:13;;;;;;;7.80;6.83;;;;;;;4.85;100.00;101720.75;5116660;28;20034;-37
2023/12/14 08:28:41;;;;;;;7.63;6.80;;;;;;;4.80;100.00;101729.31;5116149;28;20098;-37
2023/12/14 08:31:06;;;;;;;6.60;5.85;;;;;;;4.75;100.00;101726.31;5116550;28;20042;-37
2023/12/14 08:33:32;;;;;;;7.72;6.10;;;;;;;4.87;100.00;101745.53;5116507;28;20107;-37
2023/12/14 08:35:57;;;;;;;8.23;6.67;;;;;;;4.85;100.00;101748.38;5116480;28;20035;-35
2023/12/14 08:38:23;;;;;;;8.18;7.05;;;;;;;4.86;100.00;101760.78;5117210;28;20030;-35
2023/12/14 08:40:48;;;;;;;7.25;6.38;;;;;;;4.84;100.00;101762.81;5116221;28;20106;-38
2023/12/14 08:43:14;;;;;;;6.70;5.97;;;;;;;4.78;100.00;101751.91;5116124;28;20027;-37
2023/12/14 08:45:39;;;;;;;7.57;6.47;;;;;;;4.84;100.00;101773.53;5116632;28;20027;-37
2023/12/14 08:48:05;;;;;;;6.50;5.90;;;;;;;4.85;100.00;101777.03;5116303;28;20030;-37
2023/12/14 08:50:31;;;;;;;7.10;5.75;;;;;;;4.78;100.00;101782.25;5116783;28;20019;-37
2023/12/14 08:52:58;;;;;;;6.22;5.57;;;;;;;4.73;100.00;101775.69;5116162;28;20028;-37
2023/12/14 08:55:24;;;;;;;6.93;6.00;;;;;;;4.70;100.00;101771.53;5115803;28;20027;-37
2023/12/14 08:57:49;;;;;;;6.72;6.13;;;;;;;4.76;100.00;101781.56;5116579;28;20059;-37
2023/12/14 09:00:15;;;;;;;6.40;5.80;;;;;;;4.77;100.00;101774.38;5116278;28;20020;-38
2023/12/14 09:02:41;;;;;;;6.90;6.20;;;;;;;4.69;100.00;101780.59;5115652;28;20494;-37
2023/12/14 09:05:07;;;;;;;6.68;6.07;;;;;;;4.79;100.00;101800.00;5115706;28;20020;-37
2023/12/14 09:07:33;;;;;;;5.88;5.20;;;;;;;4.84;100.00;101791.44;5115958;28;20427;-37
2023/12/14 09:09:58;;;;;;;6.97;5.80;;;;;;;4.85;100.00;101793.94;5115662;28;20085;-37
2023/12/14 09:12:24;;;;;;;6.57;5.70;;;;;;;4.75;100.00;101797.81;5116090;28;20494;-37
2023/12/14 09:14:49;;;;;;;6.28;5.75;;;;;;;4.85;100.00;101812.72;5116540;28;20355;-37
2023/12/14 09:17:15;;;;;;;5.77;5.17;;;;;;;4.89;100.00;101824.78;5116203;28;20078;-37
2023/12/14 09:19:40;;;;;;;6.35;5.75;;;;;;;4.85;100.00;101828.78;5115566;28;20076;-37
2023/12/14 09:22:06;;;;;;;6.33;5.73;;;;;;;4.83;100.00;101832.63;5115614;28;20036;-37
2023/12/14 09:24:31;;;;;;;6.35;5.75;;;;;;;4.84;100.00;101832.47;5115461;27;20110;-37
2023/12/14 09:26:56;;;;;;;6.90;6.20;;;;;;;4.91;100.00;101840.69;5116397;28;20043;-37
2023/12/14 09:29:22;;;;;;;6.43;5.83;;;;;;;4.83;100.00;101852.25;5115467;28;20061;-37
2023/12/14 09:31:47;;;;;;;10.33;6.40;;;;;;;4.73;100.00;101838.16;5116245;28;20077;-37
2023/12/14 09:34:13;;;;;;;5.93;5.43;;;;;;;4.76;100.00;101853.09;5115047;28;20475;-37
2023/12/14 09:36:41;;;;;;;7.13;5.68;;;;;;;4.76;100.00;101863.81;5115233;28;20020;-35
2023/12/14 09:39:10;;;;;;;7.00;5.82;;;;;;;4.63;100.00;101851.72;5115140;28;20084;-35
2023/12/14 09:41:37;;;;;;;7.40;5.75;;;;;;;4.71;100.00;101874.19;5114079;28;20031;-36
2023/12/14 09:44:03;;;;;;;5.90;5.30;;;;;;;4.69;100.00;101877.03;5115148;28;20077;-35
2023/12/14 09:46:30;;;;;;;5.15;4.65;;;;;;;4.70;100.00;101885.91;5114914;28;20027;-36
2023/12/14 09:48:57;;;;;;;6.97;6.28;;;;;;;4.66;100.00;101882.72;5114781;28;20031;-36
2023/12/14 09:51:23;;;;;;;6.47;5.70;;;;;;;4.61;100.00;101890.44;5115528;28;20031;-35
2023/12/14 09:53:49;;;;;;;6.40;5.63;;;;;;;4.62;100.00;101897.47;5115477;28;20047;-36
2023/12/14 09:56:14;;;;;;;7.53;6.30;;;;;;;4.64;100.00;101900.81;5115253;28;20023;-36
2023/12/14 09:58:39;;;;;;;6.43;5.60;;;;;;;4.67;100.00;101895.13;5114895;28;20039;-36
2023/12/14 10:01:21;;;;;;;8.23;6.73;;;;;;;4.70;100.00;101908.19;5114560;28;20023;-36
2023/12/14 10:03:47;;;;;;;7.65;6.05;;;;;;;4.71;100.00;101912.53;5115033;28;20023;-36
2023/12/14 10:06:12;;;;;;;7.03;5.87;;;;;;;4.73;100.00;101918.56;5115048;28;20042;-36
2023/12/14 10:08:38;;;;;;;6.53;5.67;;;;;;;4.74;100.00;101932.81;5114437;28;20024;-36
2023/12/14 10:11:15;;;;;;;6.50;5.63;;;;;;;4.65;100.00;101916.72;5114356;28;20027;-36
2023/12/14 10:13:40;;;;;;;6.22;5.57;;;;;;;4.73;100.00;101936.47;5115151;28;20031;-36
2023/12/14 10:16:06;;;;;;;6.80;5.65;;;;;;;4.75;100.00;101935.31;5114781;28;20380;-36
2023/12/14 10:18:34;;;;;;;6.80;5.60;;;;;;;4.74;100.00;101939.00;5114201;28;20019;-36
2023/12/14 10:20:59;;;;;;;5.35;4.85;;;;;;;4.69;100.00;101930.63;5114726;28;20050;-36
2023/12/14 10:23:27;;;;;;;6.37;5.27;;;;;;;4.65;100.00;101945.38;5114747;28;20024;-36
2023/12/14 10:25:52;;;;;;;8.50;6.65;;;;;;;4.58;100.00;101934.44;5114333;28;20039;-36
2023/12/14 10:28:18;;;;;;;6.05;5.45;;;;;;;4.65;100.00;101951.56;5114625;28;20024;-36
2023/12/14 10:30:43;;;;;;;5.30;4.80;;;;;;;4.67;100.00;101958.59;5114153;28;20112;-36
2023/12/14 10:33:09;;;;;;;5.60;4.90;;;;;;;4.65;100.00;101940.84;5114297;28;20023;-36
2023/12/14 10:35:35;;;;;;;8.75;5.50;;;;;;;4.71;100.00;101954.56;5114562;28;20399;-36
2023/12/14 10:38:04;;;;;;;6.00;5.28;;;;;;;4.67;100.00;101954.06;5114237;28;20036;-36
2023/12/14 10:40:30;;;;;;;5.80;5.20;;;;;;;4.72;100.00;101950.88;5114136;28;20039;-36
2023/12/14 10:42:58;;;;;;;5.88;5.28;;;;;;;4.70;100.00;101959.09;5114783;28;20456;-36
2023/12/14 10:45:29;;;;;;;6.00;5.40;;;;;;;4.80;100.00;101951.75;5114051;28;20028;-36
2023/12/14 10:47:56;;;;;;;10.93;9.40;;;;;;;4.70;100.00;101932.31;5114569;28;20032;-36
2023/12/14 10:50:22;;;;;;;16.38;12.05;;;;;;;4.84;100.00;101961.13;5113955;28;20027;-36
2023/12/14 10:52:48;;;;;;;12.75;10.88;;;;;;;4.87;100.00;101955.41;5114376;28;20116;-36
2023/12/14 10:55:41;;;;;;;16.35;13.88;;;;;;;4.93;100.00;101963.78;5113823;28;20057;-36
2023/12/14 10:58:08;;;;;;;55.42;44.50;;;;;;;4.94;100.00;101968.19;5111930;28;20123;-36
2023/12/14 11:00:34;;;;;;;19.90;17.38;;;;;;;4.93;100.00;101961.13;5113935;28;20455;-36
2023/12/14 11:03:00;;;;;;;64.70;56.50;;;;;;;4.94;100.00;101954.78;5113933;28;20046;-36
2023/12/14 11:05:29;;;;;;;29.15;25.98;;;;;;;4.90;100.00;101949.72;5113544;28;20039;-36
2023/12/14 11:07:55;;;;;;;9.88;8.85;;;;;;;4.80;100.00;101958.94;5114121;28;20031;-36
2023/12/14 11:10:26;;;;;;;;;;;;;;;5.04;100.00;101967.00;5114810;28;20027;-36